Sterling, Connecticut
Current Conditions -  °F | °C
As of 2:52 AM on Thursday 29 Jan 2015 (Local Time) from KIJD Reporting Station
Clear Clear  
Wind Chill: -2°   Ceiling: Unl
Heat Index: -2°   Visibility: 9mi
Dew Point: -6°   Wind: 0mph
Humidity: 83%   Direction: NA
Pressure: 30.29"   Gusts: NA
Location:  41.71°N, 71.83°W
Report Text: KIJD 290752Z AUTO 00000KT 9SM CLR M19/M21 A3029 RMK AO2 SLP260 I1000 T11891211
Loading
Personal Weather Stations






























Interactive Weather Map New forecast layout! Learn more

10-Day Weather Forecast

Advertisements
Track Severe Weather on mobile